createdAt,value
2023-01-29T00:09:40.222Z,8.07
2023-01-29T00:20:01.976Z,6.57
2023-01-29T00:30:24.875Z,8.82
2023-01-29T00:41:03.844Z,8.00
2023-01-29T00:51:27.328Z,10.27
2023-01-29T01:02:06.967Z,13.35
2023-01-29T01:12:30.682Z,8.05
2023-01-29T01:22:52.423Z,12.75
2023-01-29T01:33:15.237Z,8.27
2023-01-29T01:43:55.511Z,8.93
2023-01-29T01:54:21.711Z,8.05
2023-01-29T02:05:04.677Z,15.93
2023-01-29T02:15:27.468Z,14.05
2023-01-29T02:26:26.479Z,11.20
2023-01-29T02:36:54.505Z,8.50
2023-01-29T02:47:21.675Z,14.18
2023-01-29T02:57:50.517Z,10.63
2023-01-29T03:08:18.162Z,13.52
2023-01-29T03:18:46.258Z,15.25
2023-01-29T03:29:28.539Z,21.20
2023-01-29T03:39:52.199Z,11.02
2023-01-29T03:50:28.569Z,13.50
2023-01-29T04:00:57.398Z,14.93
2023-01-29T04:11:22.141Z,12.65
2023-01-29T04:21:48.600Z,17.45
2023-01-29T04:32:17.526Z,14.43
2023-01-29T04:42:48.471Z,17.02
2023-01-29T04:53:18.733Z,20.50
2023-01-29T05:03:44.283Z,19.95
2023-01-29T05:14:09.424Z,13.75
2023-01-29T05:24:32.443Z,7.45
2023-01-29T05:34:54.101Z,20.52
2023-01-29T05:45:17.052Z,27.67
2023-01-29T05:55:38.435Z,21.73
2023-01-29T06:06:02.867Z,16.50
2023-01-29T06:16:24.541Z,14.93
2023-01-29T06:26:47.565Z,33.60
2023-01-29T06:37:08.971Z,24.48
2023-01-29T06:47:32.267Z,29.85
2023-01-29T06:57:54.124Z,25.35
2023-01-29T07:08:17.195Z,26.92
2023-01-29T07:18:39.772Z,26.10
2023-01-29T07:29:03.072Z,21.80
2023-01-29T07:39:24.874Z,18.90
2023-01-29T07:49:47.790Z,39.05
2023-01-29T08:00:11.489Z,29.42
2023-01-29T08:10:38.122Z,33.40
2023-01-29T08:21:03.298Z,29.10
2023-01-29T08:31:27.009Z,23.58
2023-01-29T08:41:48.654Z,30.70
2023-01-29T08:52:11.999Z,32.45
2023-01-29T09:02:33.759Z,29.17
2023-01-29T09:12:56.951Z,35.28
2023-01-29T09:23:19.081Z,34.35
2023-01-29T09:33:41.982Z,20.92
2023-01-29T09:44:06.951Z,26.67
2023-01-29T09:54:34.214Z,32.53
2023-01-29T10:05:09.932Z,31.30
2023-01-29T10:15:47.609Z,21.48
2023-01-29T10:26:13.246Z,22.50
2023-01-29T10:36:39.692Z,29.17
2023-01-29T10:47:21.604Z,33.80
2023-01-29T10:58:03.148Z,23.77
2023-01-29T11:08:30.269Z,16.70
2023-01-29T11:18:56.986Z,18.27
2023-01-29T11:29:33.561Z,23.58
2023-01-29T11:39:56.596Z,16.77
2023-01-29T11:50:22.855Z,24.27
2023-01-29T12:00:49.115Z,18.87
2023-01-29T12:11:14.116Z,11.90
2023-01-29T12:21:46.259Z,13.98
2023-01-29T12:32:16.863Z,20.52
2023-01-29T12:42:42.651Z,27.50
2023-01-29T12:53:16.253Z,19.00
2023-01-29T13:03:48.778Z,17.38
2023-01-29T13:14:18.207Z,16.05
2023-01-29T13:24:44.369Z,19.70
2023-01-29T13:35:16.074Z,21.85
2023-01-29T13:45:48.697Z,20.45
2023-01-29T13:56:42.736Z,22.88
2023-01-29T14:07:49.057Z,13.18
2023-01-29T14:18:20.364Z,22.70
2023-01-29T14:28:44.405Z,23.17
2023-01-29T14:39:06.284Z,19.40
2023-01-29T14:49:57.506Z,20.77
2023-01-29T15:00:25.958Z,22.35
2023-01-29T15:11:13.598Z,20.42
2023-01-29T15:21:35.170Z,20.42
2023-01-29T15:31:59.011Z,17.98
2023-01-29T15:42:25.796Z,26.92
2023-01-29T15:52:53.143Z,22.38
2023-01-29T16:03:16.054Z,45.40
2023-01-29T16:13:44.282Z,23.40
2023-01-29T16:24:10.108Z,33.78
2023-01-29T16:34:36.172Z,24.48
2023-01-29T16:45:00.874Z,23.73
2023-01-29T16:55:25.670Z,26.25
2023-01-29T17:05:48.294Z,22.58
2023-01-29T17:16:26.981Z,24.92
2023-01-29T17:26:49.062Z,25.98
2023-01-29T17:37:16.380Z,36.17
2023-01-29T17:47:38.223Z,30.42
2023-01-29T17:58:01.511Z,25.98
2023-01-29T18:08:29.658Z,15.60
2023-01-29T18:18:53.678Z,27.23
2023-01-29T18:29:15.798Z,24.13
2023-01-29T18:39:38.950Z,28.27
2023-01-29T18:50:00.488Z,27.70
2023-01-29T19:00:24.803Z,30.80
2023-01-29T19:10:46.602Z,24.58
2023-01-29T19:21:11.547Z,23.90
2023-01-29T19:31:33.576Z,34.67
2023-01-29T19:41:56.630Z,20.73
2023-01-29T19:52:41.445Z,20.73
2023-01-29T20:03:12.749Z,18.52
2023-01-29T20:13:34.894Z,14.70
2023-01-29T20:23:59.267Z,13.27
2023-01-29T20:34:21.811Z,20.90
2023-01-29T20:44:44.811Z,17.63
2023-01-29T20:55:08.768Z,19.63
2023-01-29T21:05:32.389Z,11.00
2023-01-29T21:15:54.317Z,17.13
2023-01-29T21:26:18.877Z,24.27
2023-01-29T21:36:41.249Z,26.20
2023-01-29T21:47:12.367Z,20.13
2023-01-29T21:57:34.164Z,10.00
2023-01-29T22:07:57.615Z,22.63
2023-01-29T22:18:19.853Z,15.70
2023-01-29T22:28:43.949Z,14.07
2023-01-29T22:39:06.350Z,15.77
2023-01-29T22:49:30.365Z,14.30
2023-01-29T22:59:53.998Z,13.98
2023-01-29T23:10:18.209Z,20.45
2023-01-29T23:20:40.206Z,19.98
2023-01-29T23:31:03.070Z,15.45
2023-01-29T23:41:24.972Z,17.77
2023-01-29T23:51:49.969Z,12.15
